Time;durP1;ratioP1;P1;durP2;ratioP2;P2;SDS_P1;SDS_P2;PMS_P1;PMS_P2;Temp;Humidity;BMP_temperature;BMP_pressure;BME280_temperature;BME280_humidity;BME280_pressure;Samples;Min_cycle;Max_cycle;Signal;HPM_P1;HPM_P2
2021/05/19 00:02:22;;;;;;;6.15;4.85;;;;;;;14.14;87.18;99928.42;1741765;82;21182;-57
2021/05/19 00:04:57;;;;;;;12.25;4.97;;;;;;;14.17;87.14;99929.91;1741546;82;21155;-57
2021/05/19 00:07:31;;;;;;;8.58;5.28;;;;;;;14.17;87.03;99928.09;1742826;82;21812;-57
2021/05/19 00:10:05;;;;;;;9.58;5.28;;;;;;;14.15;86.96;99925.30;1746625;82;21319;-56
2021/05/19 00:12:38;;;;;;;9.43;5.72;;;;;;;14.13;87.11;99936.02;1745554;82;21321;-56
2021/05/19 00:15:12;;;;;;;9.13;5.42;;;;;;;14.14;87.19;99936.32;1745559;82;21328;-57
2021/05/19 00:17:46;;;;;;;8.45;5.55;;;;;;;14.17;87.27;99945.21;1745537;82;21197;-56
2021/05/19 00:20:21;;;;;;;10.63;5.87;;;;;;;14.23;87.33;99938.95;1745164;82;21139;-56
2021/05/19 00:22:53;;;;;;;;;;;;;;;14.27;87.32;99943.72;1747980;82;21329;-56
2021/05/19 00:25:26;;;;;;;10.30;5.85;;;;;;;14.35;87.44;99956.08;1745430;82;20253;-56
2021/05/19 00:27:59;;;;;;;9.25;5.10;;;;;;;14.40;87.38;99959.05;1745546;82;21332;-57
2021/05/19 00:30:35;;;;;;;8.65;5.47;;;;;;;14.47;87.25;99963.97;1746636;82;21197;-56
2021/05/19 00:33:07;;;;;;;9.35;5.47;;;;;;;14.54;87.07;99978.11;1745512;82;21776;-57
2021/05/19 00:35:40;;;;;;;7.85;5.62;;;;;;;14.59;86.90;99984.49;1745453;82;21297;-56
2021/05/19 00:38:13;;;;;;;10.63;6.10;;;;;;;14.65;86.80;99993.06;1745613;82;21182;-57
2021/05/19 00:40:48;;;;;;;8.70;6.03;;;;;;;14.74;86.71;100006.53;1746636;82;21189;-57
2021/05/19 00:43:23;;;;;;;6.33;4.45;;;;;;;14.82;86.60;100012.28;1745389;82;21189;-56
2021/05/19 00:45:56;;;;;;;9.13;5.47;;;;;;;14.92;86.45;100016.87;1745489;82;21131;-56
2021/05/19 00:48:29;;;;;;;6.93;5.17;;;;;;;15.01;86.19;100015.02;1745699;82;21870;-56
2021/05/19 00:51:03;;;;;;;7.33;5.12;;;;;;;15.07;86.00;100017.00;1745918;82;21170;-57
2021/05/19 00:53:37;;;;;;;11.40;5.08;;;;;;;15.13;85.84;100008.39;1744871;82;21162;-56
2021/05/19 00:56:10;;;;;;;8.48;5.53;;;;;;;15.16;85.64;99998.34;1720157;82;21289;-56
2021/05/19 00:58:44;;;;;;;8.98;5.20;;;;;;;15.22;85.45;100000.77;1745419;82;21181;-56
2021/05/19 01:01:17;;;;;;;8.00;5.20;;;;;;;15.27;85.31;99994.48;1746831;82;21257;-56
2021/05/19 01:03:54;;;;;;;10.53;5.15;;;;;;;15.31;85.16;99990.49;1744946;82;21296;-57
2021/05/19 01:06:47;;;;;;;7.62;4.40;;;;;;;15.33;85.00;99985.37;1744619;82;21175;-57
2021/05/19 01:12:00;;;;;;;8.28;4.30;;;;;;;15.37;85.09;99970.86;1763283;81;21792;-56
2021/05/19 01:14:34;;;;;;;6.53;4.58;;;;;;;15.35;85.12;99964.95;1764870;81;21260;-55
2021/05/19 01:17:07;;;;;;;6.08;4.45;;;;;;;15.32;85.23;99953.91;1764889;81;21205;-56
2021/05/19 01:19:44;;;;;;;9.05;4.03;;;;;;;15.29;85.40;99953.75;1764918;81;21264;-56
2021/05/19 01:22:29;;;;;;;7.83;3.77;;;;;;;15.26;85.63;99962.53;1738825;81;21300;-56
2021/05/19 01:25:02;;;;;;;4.80;3.55;;;;;;;15.23;85.87;99966.81;1764535;81;21265;-56
2021/05/19 01:27:35;;;;;;;8.43;4.08;;;;;;;15.19;86.06;99970.28;1765133;81;21291;-56
2021/05/19 01:30:10;;;;;;;6.58;4.03;;;;;;;15.17;86.17;99978.87;1765070;81;21724;-57
2021/05/19 01:32:44;;;;;;;9.20;4.58;;;;;;;15.12;86.28;99977.23;1764712;81;21265;-56
2021/05/19 01:35:17;;;;;;;10.53;4.13;;;;;;;15.07;86.41;99977.45;1764968;81;21688;-56
2021/05/19 01:37:50;;;;;;;5.42;4.42;;;;;;;15.01;86.63;99974.16;1763456;80;21281;-56
2021/05/19 01:40:24;;;;;;;7.75;4.50;;;;;;;14.94;86.81;99966.61;1776685;81;21256;-56
2021/05/19 01:42:57;;;;;;;7.50;4.75;;;;;;;14.88;87.02;99960.20;1765095;81;21238;-56
2021/05/19 01:45:42;;;;;;;6.62;4.75;;;;;;;14.82;87.08;99952.98;1654397;85;21269;-56
2021/05/19 01:48:16;;;;;;;11.15;5.67;;;;;;;14.73;87.16;99961.43;1627890;88;21292;-56
2021/05/19 01:50:49;;;;;;;7.62;5.10;;;;;;;14.64;87.35;99946.61;1629264;87;21777;-56
2021/05/19 01:53:23;;;;;;;;;;;;;;;14.55;87.58;99950.76;1656860;86;21709;-57
2021/05/19 01:55:55;;;;;;;14.98;4.90;;;;;;;14.48;87.90;99951.11;1628632;87;20236;-57
2021/05/19 01:58:29;;;;;;;7.33;5.20;;;;;;;14.40;88.26;99950.63;1654687;87;21189;-56
2021/05/19 02:01:07;;;;;;;7.62;5.15;;;;;;;14.36;88.62;99951.12;1661935;86;21232;-56
2021/05/19 02:03:42;;;;;;;6.60;4.85;;;;;;;14.34;88.89;99951.30;1662360;86;21207;-56
2021/05/19 02:06:17;;;;;;;8.15;4.70;;;;;;;14.32;89.19;99959.88;1661178;86;21291;-56
2021/05/19 02:08:52;;;;;;;7.33;5.00;;;;;;;14.32;89.39;99951.14;1662188;86;21373;-57
2021/05/19 02:11:27;;;;;;;8.65;4.55;;;;;;;14.31;89.59;99955.58;1662043;86;21653;-57
2021/05/19 02:14:02;;;;;;;10.88;4.80;;;;;;;14.33;89.78;99954.91;1662972;86;21291;-56
2021/05/19 02:16:36;;;;;;;;;;;;;;;14.36;89.87;99951.12;1664465;86;21307;-56
2021/05/19 02:19:11;;;;;;;10.53;5.03;;;;;;;14.42;89.94;99943.89;1661811;86;20298;-57
2021/05/19 02:21:46;;;;;;;6.62;4.65;;;;;;;14.48;89.98;99947.16;1663146;86;21783;-56
2021/05/19 02:24:20;;;;;;;8.03;4.50;;;;;;;14.53;89.94;99945.67;1662555;86;21719;-56
2021/05/19 02:26:55;;;;;;;5.87;4.50;;;;;;;14.56;89.70;99947.97;1662376;86;21262;-56
2021/05/19 02:29:29;;;;;;;11.83;4.40;;;;;;;14.60;89.63;99949.76;1662705;86;21188;-56
2021/05/19 02:32:03;;;;;;;7.22;4.58;;;;;;;14.62;89.55;99946.45;1663590;86;21340;-56
2021/05/19 02:34:36;;;;;;;6.83;4.28;;;;;;;14.63;89.46;99952.06;1662938;86;21730;-57
2021/05/19 02:37:10;;;;;;;8.30;4.67;;;;;;;14.65;89.32;99942.17;1662324;86;21334;-56
2021/05/19 02:39:43;;;;;;;8.68;4.42;;;;;;;14.69;89.31;99948.25;1662689;86;21798;-57
2021/05/19 02:42:16;;;;;;;8.15;4.20;;;;;;;14.76;89.34;99939.16;1662832;86;21850;-58
2021/05/19 02:44:50;;;;;;;11.88;4.15;;;;;;;14.83;89.11;99933.56;1673627;84;21736;-58
2021/05/19 02:47:23;;;;;;;6.15;4.00;;;;;;;14.91;89.08;99939.27;1713233;84;21384;-59
2021/05/19 02:49:57;;;;;;;6.45;4.15;;;;;;;15.00;89.01;99931.16;1713837;84;21739;-59
2021/05/19 02:52:30;;;;;;;7.35;4.83;;;;;;;15.10;88.82;99923.86;1715069;84;21145;-58
2021/05/19 02:55:03;;;;;;;5.53;4.15;;;;;;;15.20;88.58;99931.55;1714575;84;22163;-58
2021/05/19 02:57:36;;;;;;;8.48;4.83;;;;;;;15.26;88.22;99929.03;1714210;84;21315;-58
2021/05/19 03:00:11;;;;;;;5.07;4.30;;;;;;;15.31;88.04;99934.62;1714604;84;21849;-58
2021/05/19 03:02:44;;;;;;;6.75;4.37;;;;;;;15.38;87.80;99937.41;1714784;84;21303;-58
2021/05/19 03:05:17;;;;;;;5.90;4.03;;;;;;;15.40;87.45;99939.36;1714371;84;21868;-59
2021/05/19 03:07:50;;;;;;;6.33;4.17;;;;;;;15.41;87.39;99941.81;1714383;84;21779;-58
2021/05/19 03:10:23;;;;;;;6.60;4.22;;;;;;;15.44;87.27;99939.33;1714531;84;21820;-58
2021/05/19 03:12:57;;;;;;;5.15;3.77;;;;;;;15.48;87.28;99940.64;1715163;84;21705;-58
2021/05/19 03:15:30;;;;;;;7.58;3.67;;;;;;;15.55;87.18;99940.79;1714479;84;21712;-62
2021/05/19 03:18:04;;;;;;;;;;;;;;;15.66;87.18;99953.56;1716573;84;21331;-60
2021/05/19 03:20:37;;;;;;;6.03;4.20;;;;;;;15.75;86.66;99955.97;1717519;83;20169;-60
2021/05/19 03:23:10;;;;;;;7.83;4.05;;;;;;;15.78;86.41;99950.84;1748195;82;21239;-60
2021/05/19 03:25:43;;;;;;;7.67;3.90;;;;;;;15.84;86.36;99950.94;1714845;84;21224;-60
2021/05/19 03:28:16;;;;;;;5.90;3.85;;;;;;;15.94;86.29;99948.06;1714366;84;21272;-60
2021/05/19 03:30:49;;;;;;;8.70;4.17;;;;;;;16.02;86.08;99940.08;1714665;84;21787;-60
2021/05/19 03:33:22;;;;;;;5.23;4.10;;;;;;;16.13;85.95;99939.64;1715300;84;21827;-60
2021/05/19 03:35:56;;;;;;;9.90;3.70;;;;;;;16.24;85.64;99947.64;1714457;84;21405;-60
2021/05/19 03:38:29;;;;;;;5.87;3.77;;;;;;;16.27;85.02;99950.73;1714226;84;21292;-60
2021/05/19 03:41:04;;;;;;;6.22;4.17;;;;;;;16.26;84.51;99957.03;1714486;84;21810;-60
2021/05/19 03:43:38;;;;;;;6.37;4.17;;;;;;;16.24;84.45;99965.61;1714852;84;21300;-60
2021/05/19 03:46:14;;;;;;;6.75;4.17;;;;;;;16.18;84.35;99953.95;1714092;84;21292;-62
2021/05/19 03:48:49;;;;;;;6.80;3.42;;;;;;;16.12;84.40;99961.27;1695860;84;21340;-60
2021/05/19 03:51:22;;;;;;;7.12;4.50;;;;;;;16.04;84.28;99961.84;1736278;82;21162;-61
2021/05/19 03:53:55;;;;;;;8.03;4.10;;;;;;;15.96;84.45;99968.01;1736678;82;21339;-63
2021/05/19 03:56:30;;;;;;;8.65;4.25;;;;;;;15.91;84.68;99965.08;1736028;82;21331;-62
2021/05/19 03:59:04;;;;;;;6.27;4.03;;;;;;;15.87;84.77;99966.44;1735995;82;21165;-63
2021/05/19 04:01:36;;;;;;;;;;;;;;;15.87;84.77;99966.44;1738520;82;21696;-61
2021/05/19 04:04:09;;;;;;;6.15;3.98;;;;;;;15.84;84.75;99965.46;1736766;82;20209;-61
2021/05/19 04:06:43;;;;;;;5.00;3.62;;;;;;;15.79;85.08;99969.13;1736208;82;21795;-61
2021/05/19 04:09:18;;;;;;;9.10;4.42;;;;;;;15.77;85.04;99956.61;1736141;82;21134;-61
2021/05/19 04:11:51;;;;;;;10.30;5.87;;;;;;;15.73;85.76;99951.86;1735765;82;21185;-61
2021/05/19 04:14:25;;;;;;;7.65;3.90;;;;;;;15.73;85.76;99951.86;1736336;82;21517;-60
2021/05/19 04:16:59;;;;;;;7.58;3.87;;;;;;;15.74;85.80;99962.75;1735891;82;21332;-64
2021/05/19 04:19:33;;;;;;;7.67;4.87;;;;;;;15.74;85.78;99957.47;1735984;82;21150;-62
2021/05/19 04:22:07;;;;;;;6.08;4.10;;;;;;;15.72;85.83;99956.80;1735799;82;21925;-63
2021/05/19 04:24:40;;;;;;;6.12;3.90;;;;;;;15.71;85.97;99960.45;1736807;82;21122;-62
2021/05/19 04:27:13;;;;;;;6.50;3.95;;;;;;;15.73;86.10;99957.14;1735986;82;21328;-61
2021/05/19 04:29:47;;;;;;;5.40;3.70;;;;;;;15.74;86.26;99957.47;1736218;82;21296;-60
2021/05/19 04:32:21;;;;;;;7.40;3.58;;;;;;;15.75;86.28;99953.81;1735795;82;21162;-60
2021/05/19 04:34:54;;;;;;;;;;;;;;;15.78;86.13;99965.35;1727945;82;21803;-60
2021/05/19 04:37:27;;;;;;;7.05;4.20;;;;;;;15.77;86.06;99967.16;1715784;82;20233;-59
2021/05/19 04:40:00;;;;;;;6.40;3.95;;;;;;;15.77;86.06;99966.34;1731405;81;21154;-60
2021/05/19 04:42:34;;;;;;;7.12;3.92;;;;;;;15.77;85.97;99962.37;1716160;82;21807;-61
2021/05/19 04:45:10;;;;;;;6.33;4.22;;;;;;;15.76;86.01;99962.08;1722777;82;21166;-59
2021/05/19 04:47:43;;;;;;;6.55;3.70;;;;;;;15.78;85.90;99954.30;1707097;81;21355;-59
2021/05/19 04:50:18;;;;;;;9.53;4.70;;;;;;;15.80;85.84;99948.84;1670718;84;21258;-60
2021/05/19 04:52:51;;;;;;;6.92;3.92;;;;;;;15.82;85.71;99944.20;1658805;84;21808;-58
2021/05/19 04:55:24;;;;;;;8.73;4.17;;;;;;;15.80;85.49;99935.64;1679417;84;21233;-59
2021/05/19 04:57:57;;;;;;;9.70;4.30;;;;;;;15.78;85.36;99942.42;1655985;86;21288;-56
2021/05/19 05:00:37;;;;;;;19.15;5.47;;;;;;;15.75;85.31;99932.21;1656069;86;21300;-59
2021/05/19 05:03:06;;;;;;;6.33;4.50;;;;;;;15.76;85.43;99929.88;1662432;84;21175;-62
2021/05/19 05:05:40;;;;;;;5.90;4.47;;;;;;;15.81;85.42;99930.17;1648651;84;21266;-60
2021/05/19 05:08:13;;;;;;;6.13;4.83;;;;;;;15.83;85.27;99923.41;1651131;84;21772;-58
2021/05/19 05:10:46;;;;;;;8.30;4.10;;;;;;;15.87;85.43;99928.16;1657491;84;21223;-62
2021/05/19 05:13:19;;;;;;;7.90;4.10;;;;;;;15.95;85.36;99927.27;1680255;83;21616;-60
2021/05/19 05:15:53;;;;;;;7.05;4.47;;;;;;;15.98;85.20;99929.04;1665178;84;21304;-61
2021/05/19 05:18:26;;;;;;;10.23;5.57;;;;;;;16.03;85.01;99918.77;1670745;83;21342;-57
2021/05/19 05:20:59;;;;;;;5.43;4.30;;;;;;;16.13;85.04;99922.48;1674336;83;21881;-59
2021/05/19 05:23:32;;;;;;;22.40;14.33;;;;;;;16.24;84.83;99922.55;1654619;84;21962;-59
2021/05/19 05:26:05;;;;;;;8.78;5.17;;;;;;;16.30;84.56;99921.81;1655326;84;21435;-59
2021/05/19 05:28:38;;;;;;;7.58;4.97;;;;;;;16.36;84.40;99927.19;1663932;84;21344;-59
2021/05/19 05:31:11;;;;;;;6.12;4.70;;;;;;;16.39;83.97;99923.36;1679499;83;21327;-60
2021/05/19 05:33:46;;;;;;;11.43;8.68;;;;;;;16.41;83.93;99917.39;1667301;85;21334;-60
2021/05/19 05:36:20;;;;;;;11.90;9.98;;;;;;;16.44;83.89;99915.72;1668088;85;21865;-60
2021/05/19 05:38:53;;;;;;;17.90;13.03;;;;;;;16.46;83.73;99921.64;1666370;85;21809;-60
2021/05/19 05:41:28;;;;;;;12.60;9.05;;;;;;;16.46;83.58;99917.18;1665397;85;21248;-60
2021/05/19 05:44:04;;;;;;;15.80;13.65;;;;;;;16.43;83.78;99921.50;1666061;85;21205;-61
2021/05/19 05:46:37;;;;;;;10.60;7.30;;;;;;;16.41;83.79;99914.75;1662742;85;21284;-60
2021/05/19 05:49:11;;;;;;;8.70;6.45;;;;;;;16.38;84.09;99922.57;1665150;84;21314;-62
2021/05/19 05:51:46;;;;;;;6.55;5.55;;;;;;;16.35;84.18;99924.25;1675414;84;21336;-59
2021/05/19 05:54:19;;;;;;;9.65;7.00;;;;;;;16.28;84.35;99925.14;1672587;84;21161;-58
2021/05/19 05:56:52;;;;;;;9.48;8.45;;;;;;;16.20;84.73;99919.44;1675391;84;21316;-61
2021/05/19 05:59:27;;;;;;;9.08;7.08;;;;;;;16.13;85.57;99925.12;1676910;84;22280;-59
2021/05/19 06:01:59;;;;;;;11.60;8.30;;;;;;;16.05;86.24;99931.28;1675879;84;21387;-61
2021/05/19 06:04:32;;;;;;;9.53;7.60;;;;;;;15.99;86.97;99923.27;1681152;84;21289;-63
2021/05/19 06:07:07;;;;;;;12.00;7.55;;;;;;;15.90;87.64;99925.66;1674175;84;21315;-56
2021/05/19 06:09:44;;;;;;;8.23;6.87;;;;;;;15.83;88.35;99927.38;1673774;84;21331;-56
2021/05/19 06:12:16;;;;;;;10.65;7.47;;;;;;;15.75;89.03;99929.57;1671447;84;21343;-58
2021/05/19 06:14:49;;;;;;;11.57;8.80;;;;;;;15.67;89.73;99933.58;1669905;84;21231;-59
2021/05/19 06:17:22;;;;;;;11.20;7.75;;;;;;;15.60;90.43;99938.41;1676968;84;21335;-62
2021/05/19 06:19:56;;;;;;;11.35;7.28;;;;;;;15.57;91.08;99949.34;1670773;84;21310;-65
2021/05/19 06:22:30;;;;;;;11.78;8.40;;;;;;;15.52;91.65;99952.51;1670923;84;21140;-60
2021/05/19 06:25:08;;;;;;;14.40;8.13;;;;;;;15.49;92.22;99937.02;1676367;84;21304;-61
2021/05/19 06:27:41;;;;;;;8.60;7.70;;;;;;;15.49;92.67;99939.17;1676900;84;21283;-68
2021/05/19 06:30:17;;;;;;;11.38;8.25;;;;;;;15.49;93.05;99939.17;1674044;84;21346;-65
2021/05/19 06:32:52;;;;;;;12.58;8.68;;;;;;;15.48;93.23;99954.66;1683018;84;21187;-66
2021/05/19 06:35:28;;;;;;;15.38;8.23;;;;;;;15.44;93.58;99949.42;1678097;84;21707;-67
2021/05/19 06:38:03;;;;;;;12.78;8.25;;;;;;;15.38;94.05;99954.02;1669362;84;21314;-65
2021/05/19 06:40:37;;;;;;;13.15;8.50;;;;;;;15.33;94.45;99953.72;1674644;84;21298;-66
2021/05/19 06:43:13;;;;;;;11.80;7.37;;;;;;;15.31;94.95;99950.44;1673105;84;21219;-64
2021/05/19 06:45:47;;;;;;;12.10;7.28;;;;;;;15.29;95.24;99943.70;1673139;84;21906;-66
2021/05/19 06:48:23;;;;;;;12.28;7.33;;;;;;;15.27;95.51;99953.11;1686189;84;21197;-70
2021/05/19 06:50:58;;;;;;;9.73;6.42;;;;;;;15.28;95.75;99956.58;1687917;82;21393;-68
2021/05/19 06:53:31;;;;;;;10.60;7.35;;;;;;;15.26;95.73;99950.14;1692892;82;21243;-63
2021/05/19 06:56:07;;;;;;;7.40;6.62;;;;;;;15.24;95.98;99946.86;1673870;84;21257;-65
2021/05/19 06:58:40;;;;;;;10.70;6.22;;;;;;;15.26;96.18;99948.02;1729564;82;21355;-71
2021/05/19 07:01:13;;;;;;;9.48;6.70;;;;;;;15.29;96.42;99958.20;1689715;84;21177;-67
2021/05/19 07:03:49;;;;;;;7.90;5.65;;;;;;;15.32;96.53;99953.41;1672293;84;21413;-65
2021/05/19 07:06:24;;;;;;;8.75;6.20;;;;;;;15.35;96.57;99966.27;1700279;82;21964;-66
2021/05/19 07:08:58;;;;;;;5.40;4.60;;;;;;;15.38;96.50;99958.50;1672406;83;21382;-65
2021/05/19 07:11:32;;;;;;;7.85;5.05;;;;;;;15.38;95.97;99961.14;1692490;82;21357;-67
2021/05/19 07:14:13;;;;;;;4.25;3.50;;;;;;;15.37;95.63;99966.08;1688396;82;21270;-65
2021/05/19 07:16:50;;;;;;;3.37;3.05;;;;;;;15.38;95.24;99976.45;1705620;82;21307;-65
2021/05/19 07:19:19;;;;;;;8.40;3.98;;;;;;;15.37;94.64;99993.77;1701117;82;21327;-64
2021/05/19 07:21:53;;;;;;;4.67;3.55;;;;;;;15.34;93.69;100004.17;1693697;82;22097;-66
2021/05/19 07:24:26;;;;;;;4.65;3.55;;;;;;;15.30;93.42;99993.66;1673331;83;21680;-65
2021/05/19 07:27:00;;;;;;;4.67;2.95;;;;;;;15.26;92.89;99983.63;1734259;80;21272;-67
2021/05/19 07:29:33;;;;;;;4.77;3.50;;;;;;;15.22;92.92;99979.17;1723698;81;21338;-64
2021/05/19 07:32:09;;;;;;;5.15;3.10;;;;;;;15.22;93.13;99976.54;1677506;84;21184;-65
2021/05/19 07:34:43;;;;;;;5.20;3.35;;;;;;;15.20;92.91;99979.02;1688995;84;21276;-66
2021/05/19 07:37:17;;;;;;;11.50;3.17;;;;;;;15.21;92.94;99981.47;1682459;84;21237;-60
2021/05/19 07:39:53;;;;;;;3.70;3.10;;;;;;;15.19;92.62;99986.63;1676431;83;21306;-63
2021/05/19 07:42:27;;;;;;;4.50;2.90;;;;;;;15.18;92.70;99982.33;1672917;83;21355;-62
2021/05/19 07:45:00;;;;;;;4.70;3.10;;;;;;;15.18;92.89;99979.70;1670209;83;21682;-65
2021/05/19 07:47:32;;;;;;;5.17;1.95;;;;;;;15.18;92.58;99981.02;1678653;84;21295;-69
2021/05/19 07:50:08;;;;;;;5.25;3.33;;;;;;;15.13;91.73;99990.76;1673311;83;21346;-64
2021/05/19 07:52:41;;;;;;;4.25;1.60;;;;;;;15.07;90.60;99994.06;1678860;83;21208;-65
2021/05/19 07:55:30;;;;;;;3.22;1.40;;;;;;;14.99;89.47;100003.34;1674507;84;21249;-65
2021/05/19 07:58:00;;;;;;;4.42;2.15;;;;;;;14.94;88.70;100012.73;1697482;83;21189;-69
2021/05/19 08:03:07;;;;;;;4.45;1.50;;;;;;;14.88;88.42;100016.87;1680086;84;21739;-64
2021/05/19 08:05:40;;;;;;;5.75;1.52;;;;;;;14.92;88.41;100020.83;1697532;83;21291;-66
2021/05/19 08:08:12;;;;;;;2.95;1.67;;;;;;;14.93;87.99;100015.03;1728448;82;21232;-63
2021/05/19 08:10:45;;;;;;;3.50;1.55;;;;;;;14.93;87.71;100007.95;1727497;82;21314;-66
2021/05/19 08:13:18;;;;;;;3.87;1.27;;;;;;;14.96;87.71;99995.77;1702289;82;21270;-69
2021/05/19 08:15:51;;;;;;;3.05;1.72;;;;;;;15.02;87.72;99996.91;1719049;82;21315;-64
2021/05/19 08:18:24;;;;;;;3.90;1.50;;;;;;;15.08;87.57;100004.13;1722624;82;21239;-64
2021/05/19 08:21:01;;;;;;;3.75;1.15;;;;;;;15.12;87.27;100000.97;1722011;82;21760;-64
2021/05/19 08:23:34;;;;;;;5.67;3.30;;;;;;;15.16;87.01;99999.66;1726544;82;21193;-62
2021/05/19 08:26:08;;;;;;;4.87;2.42;;;;;;;15.19;86.56;99997.17;1728533;82;21208;-62
2021/05/19 08:28:41;;;;;;;3.98;1.87;;;;;;;15.22;86.05;100003.40;1728194;82;22389;-63
2021/05/19 08:31:18;;;;;;;3.20;1.50;;;;;;;15.23;85.52;100002.42;1722122;82;21358;-63
2021/05/19 08:33:52;;;;;;;2.87;1.30;;;;;;;15.20;85.32;100002.75;1685006;83;21343;-60
2021/05/19 08:36:28;;;;;;;4.20;1.60;;;;;;;15.25;85.13;100005.70;1726316;82;21303;-69
2021/05/19 08:39:07;;;;;;;4.50;1.65;;;;;;;15.30;84.93;100007.33;1725409;82;21353;-68
2021/05/19 08:41:43;;;;;;;3.90;1.32;;;;;;;15.43;84.88;100007.58;1727294;82;22020;-64
2021/05/19 08:44:24;;;;;;;5.37;1.60;;;;;;;15.58;84.71;99997.14;1723248;82;21236;-67
2021/05/19 08:46:58;;;;;;;4.28;1.25;;;;;;;15.78;84.59;100002.30;1724730;82;22696;-67
2021/05/19 08:49:36;;;;;;;5.05;1.57;;;;;;;15.98;83.83;100000.82;1719100;82;21161;-66
2021/05/19 08:52:09;;;;;;;5.30;1.60;;;;;;;16.19;83.86;99997.84;1720331;82;21322;-67
2021/05/19 08:54:42;;;;;;;4.60;1.50;;;;;;;16.43;83.28;99996.80;1719744;82;21224;-63
2021/05/19 08:57:18;;;;;;;2.80;1.62;;;;;;;16.67;82.33;100011.66;1711612;82;21295;-63
2021/05/19 08:59:51;;;;;;;2.98;1.95;;;;;;;16.89;80.94;100014.70;1712826;82;21323;-62
2021/05/19 09:02:25;;;;;;;3.47;1.70;;;;;;;17.07;80.51;100011.20;1716061;81;22516;-65
2021/05/19 09:05:00;;;;;;;4.87;1.80;;;;;;;17.22;80.09;100017.28;1716127;81;21283;-66
2021/05/19 09:07:34;;;;;;;4.80;1.50;;;;;;;17.30;79.22;100022.48;1711124;81;21216;-66
2021/05/19 09:10:18;;;;;;;4.25;2.15;;;;;;;17.32;78.08;100023.61;1713746;81;21212;-59
2021/05/19 09:12:51;;;;;;;6.25;2.02;;;;;;;17.27;78.10;100011.44;1712029;82;21351;-63
2021/05/19 09:15:24;;;;;;;2.90;1.82;;;;;;;17.26;78.48;100009.81;1715278;81;21186;-61
2021/05/19 09:18:00;;;;;;;2.60;1.70;;;;;;;17.33;78.90;100004.92;1716365;81;21299;-61
2021/05/19 09:20:33;;;;;;;4.03;2.12;;;;;;;17.43;79.02;100004.62;1657521;84;21635;-63
2021/05/19 09:23:14;;;;;;;7.15;1.67;;;;;;;17.57;79.06;99991.89;1608888;85;21164;-65
2021/05/19 09:25:42;;;;;;;2.45;1.80;;;;;;;17.82;79.26;99982.56;1665317;85;21271;-63
2021/05/19 09:28:25;;;;;;;8.17;2.53;;;;;;;18.12;78.92;99986.73;1667527;85;21188;-64
2021/05/19 09:30:58;;;;;;;4.42;2.50;;;;;;;18.39;77.88;99982.44;1665284;85;21318;-64
2021/05/19 09:33:31;;;;;;;3.77;2.67;;;;;;;18.62;75.76;99988.86;1665236;85;21212;-65
2021/05/19 09:36:19;;;;;;;;;;;;;;;18.88;75.43;99978.91;1663694;85;21177;-62
2021/05/19 09:38:54;;;;;;;2.83;2.20;;;;;;;19.16;74.62;99975.17;1670724;85;20263;-67
2021/05/19 09:41:35;;;;;;;2.33;2.05;;;;;;;19.28;72.31;99974.09;1668729;85;21176;-70
2021/05/19 09:44:10;;;;;;;4.20;2.85;;;;;;;19.37;71.94;99971.09;1664412;85;21287;-69
2021/05/19 09:46:48;;;;;;;5.35;2.98;;;;;;;19.54;71.50;99960.10;1664725;85;21925;-65
2021/05/19 09:49:23;;;;;;;7.83;3.10;;;;;;;19.73;70.61;99960.16;1666807;85;21189;-64
2021/05/19 09:52:00;;;;;;;5.62;2.80;;;;;;;19.93;70.21;99958.34;1661165;85;21874;-62
2021/05/19 09:54:42;;;;;;;4.85;2.65;;;;;;;20.23;69.19;99960.64;1671054;85;22362;-60
2021/05/19 09:57:16;;;;;;;2.55;1.80;;;;;;;20.40;66.79;99976.45;1662505;84;21352;-62
2021/05/19 09:59:52;;;;;;;4.17;2.90;;;;;;;20.38;65.24;99981.16;1674432;84;21206;-61
2021/05/19 10:02:30;;;;;;;6.62;2.00;;;;;;;20.33;65.32;99983.11;1644122;84;21381;-64
2021/05/19 10:05:09;;;;;;;4.65;1.70;;;;;;;20.18;63.93;99983.79;1672943;84;21326;-62
2021/05/19 10:07:35;;;;;;;2.83;1.82;;;;;;;19.97;63.07;99994.11;1679880;84;21901;-66
2021/05/19 10:10:08;;;;;;;1.42;1.27;;;;;;;19.75;63.36;100001.93;1672976;84;21338;-63
2021/05/19 10:12:42;;;;;;;1.45;1.30;;;;;;;19.57;63.43;100011.48;1667880;84;21216;-66
2021/05/19 10:15:21;;;;;;;1.15;1.05;;;;;;;19.40;63.80;100000.41;1672064;84;21294;-62
2021/05/19 10:18:05;;;;;;;1.98;1.50;;;;;;;19.34;63.45;100013.13;1671642;84;21321;-65
2021/05/19 10:20:43;;;;;;;2.30;1.45;;;;;;;19.24;64.09;100016.15;1672470;84;21422;-62
2021/05/19 10:23:16;;;;;;;3.17;1.20;;;;;;;19.22;64.87;100010.73;1674829;84;21311;-66
2021/05/19 10:25:51;;;;;;;1.82;1.10;;;;;;;19.10;63.07;100004.34;1645886;84;21915;-63
2021/05/19 10:28:28;;;;;;;1.92;1.10;;;;;;;19.04;63.27;100006.44;1672065;84;21326;-64
2021/05/19 10:31:01;;;;;;;2.30;1.02;;;;;;;19.00;63.07;100028.58;1646470;84;21893;-60
2021/05/19 10:33:43;;;;;;;1.20;0.80;;;;;;;18.91;63.43;100025.78;1661786;84;21323;-60
2021/05/19 10:36:33;;;;;;;1.02;0.93;;;;;;;18.83;64.28;100032.55;1681622;84;21334;-60
2021/05/19 10:39:15;;;;;;;1.40;1.10;;;;;;;18.72;63.12;100027.27;1673828;84;21271;-65
2021/05/19 10:41:53;;;;;;;1.17;1.07;;;;;;;18.59;64.20;100020.56;1688557;84;21232;-72
2021/05/19 10:44:30;;;;;;;1.22;1.05;;;;;;;18.64;64.36;100026.10;1678069;83;21335;-71
2021/05/19 10:47:07;;;;;;;1.92;1.20;;;;;;;18.70;63.15;100021.88;1665588;85;21291;-65
2021/05/19 11:01:18;;;;;;;1.27;0.82;;;;;;;18.09;61.83;100026.84;1711035;82;21412;-62
2021/05/19 11:04:18;;;;;;;1.15;0.88;;;;;;;17.97;61.96;100035.48;1709806;81;21334;-65
2021/05/19 11:07:05;;;;;;;0.90;0.70;;;;;;;17.84;62.02;100057.87;1712672;82;21630;-60
2021/05/19 11:09:43;;;;;;;2.85;0.70;;;;;;;17.59;62.64;100063.16;1709366;81;21224;-64
2021/05/19 11:12:25;;;;;;;1.35;0.80;;;;;;;17.35;63.15;100047.89;1717343;81;21311;-65
2021/05/19 11:15:12;;;;;;;1.40;0.62;;;;;;;17.24;64.19;100064.21;1716228;81;21205;-63
2021/05/19 11:17:51;;;;;;;2.87;0.80;;;;;;;17.17;63.94;100065.15;1713605;82;21236;-66
2021/05/19 11:20:18;;;;;;;3.42;0.70;;;;;;;17.11;63.76;100064.05;1712919;81;21276;-65
2021/05/19 11:22:51;;;;;;;2.47;0.70;;;;;;;17.07;64.06;100061.45;1713146;81;21744;-68
2021/05/19 11:25:24;;;;;;;3.83;0.90;;;;;;;17.06;63.08;100054.52;1713458;81;21185;-67
2021/05/19 11:28:01;;;;;;;3.17;1.00;;;;;;;17.05;63.17;100040.16;1711813;81;21277;-64
2021/05/19 11:30:37;;;;;;;1.70;0.60;;;;;;;17.05;63.14;100020.32;1711198;81;21889;-61
2021/05/19 11:33:16;;;;;;;1.47;0.62;;;;;;;17.12;63.28;100008.83;1674528;83;21253;-64
2021/05/19 11:35:49;;;;;;;1.85;0.60;;;;;;;17.27;63.38;100015.40;1713826;81;21346;-65
2021/05/19 11:38:23;;;;;;;1.67;0.55;;;;;;;17.47;63.22;100015.15;1714160;81;21347;-61
2021/05/19 11:40:57;;;;;;;4.97;0.60;;;;;;;17.70;61.66;100016.34;1715596;82;21335;-70
2021/05/19 11:43:34;;;;;;;1.73;1.50;;;;;;;17.86;60.39;100029.36;1712650;81;21213;-69
2021/05/19 11:46:07;;;;;;;1.55;0.85;;;;;;;17.98;60.43;100022.56;1673964;83;21296;-65
2021/05/19 11:48:43;;;;;;;1.10;0.70;;;;;;;18.10;60.77;100026.34;1711930;81;21299;-68
2021/05/19 11:51:26;;;;;;;0.90;0.68;;;;;;;18.29;60.75;100034.98;1718198;81;21323;-71
2021/05/19 11:54:01;;;;;;;2.20;0.82;;;;;;;18.40;60.96;100033.63;1712622;82;21351;-67
2021/05/19 11:56:46;;;;;;;1.65;1.00;;;;;;;18.42;60.69;100038.22;1681771;83;21741;-65
2021/05/19 11:59:27;;;;;;;1.20;0.85;;;;;;;18.34;61.82;100041.03;1710619;81;21273;-62
2021/05/19 12:02:11;;;;;;;2.58;0.88;;;;;;;18.27;61.51;100048.90;1711397;81;22302;-61
2021/05/19 12:04:44;;;;;;;4.67;1.10;;;;;;;18.18;61.80;100052.20;1623818;86;21341;-64
2021/05/19 12:07:17;;;;;;;5.10;1.15;;;;;;;18.15;63.08;100048.59;1684072;84;21181;-66
2021/05/19 12:09:50;;;;;;;;;;;;;;;18.05;63.54;100063.17;1634892;85;21341;-66
2021/05/19 12:12:22;;;;;;;2.52;1.02;;;;;;;17.95;63.78;100055.54;1692786;82;20286;-66
2021/05/19 12:14:58;;;;;;;3.40;1.05;;;;;;;17.89;63.67;100044.36;1650968;84;21382;-65
2021/05/19 12:17:36;;;;;;;4.15;0.90;;;;;;;17.85;63.90;100033.83;1648515;85;21323;-62
2021/05/19 12:20:25;;;;;;;3.33;1.00;;;;;;;17.88;63.75;100021.55;1646212;84;21992;-62
2021/05/19 12:23:03;;;;;;;4.83;1.15;;;;;;;17.95;63.72;100025.08;1639524;85;21335;-65
2021/05/19 12:25:38;;;;;;;1.45;1.02;;;;;;;18.01;63.78;100008.42;1643318;86;21270;-64